sensor_id;sensor_type;location;lat;lon;timestamp;temperature;humidity
25346;DHT22;13300;51.032;3.710;2023-04-03T00:01:09;4.90;99.90
25346;DHT22;13300;51.032;3.710;2023-04-03T00:03:38;4.90;99.90
25346;DHT22;13300;51.032;3.710;2023-04-03T00:06:17;5.10;99.90
25346;DHT22;13300;51.032;3.710;2023-04-03T00:08:58;5.10;99.90
25346;DHT22;13300;51.032;3.710;2023-04-03T00:14:26;5.10;99.90
25346;DHT22;13300;51.032;3.710;2023-04-03T00:16:59;5.10;99.90
25346;DHT22;13300;51.032;3.710;2023-04-03T00:19:40;5.00;99.90
25346;DHT22;13300;51.032;3.710;2023-04-03T00:22:16;5.10;99.90
25346;DHT22;13300;51.032;3.710;2023-04-03T00:24:55;5.10;99.90
25346;DHT22;13300;51.032;3.710;2023-04-03T00:27:29;5.00;99.90
25346;DHT22;13300;51.032;3.710;2023-04-03T00:29:57;5.10;99.90
25346;DHT22;13300;51.032;3.710;2023-04-03T00:32:26;5.10;99.90
25346;DHT22;13300;51.032;3.710;2023-04-03T00:34:59;5.20;99.90
25346;DHT22;13300;51.032;3.710;2023-04-03T00:37:25;5.20;99.90
25346;DHT22;13300;51.032;3.710;2023-04-03T00:39:54;5.20;99.90
25346;DHT22;13300;51.032;3.710;2023-04-03T00:42:25;5.20;99.90
25346;DHT22;13300;51.032;3.710;2023-04-03T00:47:30;5.20;99.90
25346;DHT22;13300;51.032;3.710;2023-04-03T00:50:20;5.10;99.90
25346;DHT22;13300;51.032;3.710;2023-04-03T00:52:55;5.20;99.90
25346;DHT22;13300;51.032;3.710;2023-04-03T00:55:27;5.30;99.90
25346;DHT22;13300;51.032;3.710;2023-04-03T00:57:57;5.20;99.90
25346;DHT22;13300;51.032;3.710;2023-04-03T01:00:24;5.20;99.90
25346;DHT22;13300;51.032;3.710;2023-04-03T01:02:51;5.20;99.90
25346;DHT22;13300;51.032;3.710;2023-04-03T01:05:28;5.30;99.90
25346;DHT22;13300;51.032;3.710;2023-04-03T01:07:57;5.20;99.90
25346;DHT22;13300;51.032;3.710;2023-04-03T01:10:23;5.10;99.90
25346;DHT22;13300;51.032;3.710;2023-04-03T01:13:00;5.00;99.90
25346;DHT22;13300;51.032;3.710;2023-04-03T01:15:42;5.10;99.90
25346;DHT22;13300;51.032;3.710;2023-04-03T01:18:20;5.20;99.90
25346;DHT22;13300;51.032;3.710;2023-04-03T01:21:08;5.30;99.90
25346;DHT22;13300;51.032;3.710;2023-04-03T01:24:34;5.30;99.90
25346;DHT22;13300;51.032;3.710;2023-04-03T01:27:07;5.20;99.90
25346;DHT22;13300;51.032;3.710;2023-04-03T01:30:00;5.10;99.90
25346;DHT22;13300;51.032;3.710;2023-04-03T01:35:20;5.10;99.90
25346;DHT22;13300;51.032;3.710;2023-04-03T01:37:46;5.00;99.90
25346;DHT22;13300;51.032;3.710;2023-04-03T01:40:26;5.00;99.90
25346;DHT22;13300;51.032;3.710;2023-04-03T01:43:16;5.20;99.90
25346;DHT22;13300;51.032;3.710;2023-04-03T01:45:48;5.20;99.90
25346;DHT22;13300;51.032;3.710;2023-04-03T01:48:26;5.10;99.90
25346;DHT22;13300;51.032;3.710;2023-04-03T01:51:03;5.00;99.90
25346;DHT22;13300;51.032;3.710;2023-04-03T01:53:32;5.10;99.90
25346;DHT22;13300;51.032;3.710;2023-04-03T01:56:27;5.20;99.90
25346;DHT22;13300;51.032;3.710;2023-04-03T01:59:05;5.10;99.90
25346;DHT22;13300;51.032;3.710;2023-04-03T02:01:39;5.20;99.90
25346;DHT22;13300;51.032;3.710;2023-04-03T02:04:23;5.00;99.90
25346;DHT22;13300;51.032;3.710;2023-04-03T02:06:55;5.10;99.90
25346;DHT22;13300;51.032;3.710;2023-04-03T02:09:44;4.90;99.90
25346;DHT22;13300;51.032;3.710;2023-04-03T02:12:15;5.00;99.90
25346;DHT22;13300;51.032;3.710;2023-04-03T02:15:02;5.00;99.90
25346;DHT22;13300;51.032;3.710;2023-04-03T02:17:38;5.00;99.90
25346;DHT22;13300;51.032;3.710;2023-04-03T02:20:38;5.00;99.90
25346;DHT22;13300;51.032;3.710;2023-04-03T02:23:17;5.00;99.90
25346;DHT22;13300;51.032;3.710;2023-04-03T02:26:08;5.00;99.90
25346;DHT22;13300;51.032;3.710;2023-04-03T02:28:48;5.20;99.90
25346;DHT22;13300;51.032;3.710;2023-04-03T02:31:30;5.00;99.90
25346;DHT22;13300;51.032;3.710;2023-04-03T02:33:58;5.00;99.90
25346;DHT22;13300;51.032;3.710;2023-04-03T02:36:29;5.10;99.90
25346;DHT22;13300;51.032;3.710;2023-04-03T02:39:12;5.20;99.90
25346;DHT22;13300;51.032;3.710;2023-04-03T02:41:41;5.00;99.90
25346;DHT22;13300;51.032;3.710;2023-04-03T02:44:10;4.90;99.90
25346;DHT22;13300;51.032;3.710;2023-04-03T02:46:45;5.00;99.90
25346;DHT22;13300;51.032;3.710;2023-04-03T02:49:18;5.00;99.90
25346;DHT22;13300;51.032;3.710;2023-04-03T02:51:54;5.00;99.90
25346;DHT22;13300;51.032;3.710;2023-04-03T02:54:27;5.00;99.90
25346;DHT22;13300;51.032;3.710;2023-04-03T02:57:03;5.00;99.90
25346;DHT22;13300;51.032;3.710;2023-04-03T02:59:36;4.90;99.90
25346;DHT22;13300;51.032;3.710;2023-04-03T03:02:12;4.90;99.90
25346;DHT22;13300;51.032;3.710;2023-04-03T03:04:40;4.90;99.90
25346;DHT22;13300;51.032;3.710;2023-04-03T03:07:14;5.10;99.90
25346;DHT22;13300;51.032;3.710;2023-04-03T03:09:45;4.90;99.90
25346;DHT22;13300;51.032;3.710;2023-04-03T03:12:16;5.00;99.90
25346;DHT22;13300;51.032;3.710;2023-04-03T03:15:00;4.90;99.90
25346;DHT22;13300;51.032;3.710;2023-04-03T03:17:30;4.90;99.90
25346;DHT22;13300;51.032;3.710;2023-04-03T03:20:07;4.90;99.90
25346;DHT22;13300;51.032;3.710;2023-04-03T03:22:36;4.90;99.90
25346;DHT22;13300;51.032;3.710;2023-04-03T03:25:16;4.90;99.90
25346;DHT22;13300;51.032;3.710;2023-04-03T03:27:53;4.90;99.90
25346;DHT22;13300;51.032;3.710;2023-04-03T03:30:26;4.90;99.90
25346;DHT22;13300;51.032;3.710;2023-04-03T03:32:54;4.80;99.90
25346;DHT22;13300;51.032;3.710;2023-04-03T03:35:34;4.80;99.90
25346;DHT22;13300;51.032;3.710;2023-04-03T03:38:02;4.80;99.90
25346;DHT22;13300;51.032;3.710;2023-04-03T03:40:33;4.90;99.90
25346;DHT22;13300;51.032;3.710;2023-04-03T03:43:06;4.80;99.90
25346;DHT22;13300;51.032;3.710;2023-04-03T03:45:40;4.90;99.90
25346;DHT22;13300;51.032;3.710;2023-04-03T03:48:11;4.90;99.90
25346;DHT22;13300;51.032;3.710;2023-04-03T03:50:47;4.80;99.90
25346;DHT22;13300;51.032;3.710;2023-04-03T03:53:27;4.80;99.90
25346;DHT22;13300;51.032;3.710;2023-04-03T03:56:04;4.80;99.90
25346;DHT22;13300;51.032;3.710;2023-04-03T03:58:30;4.80;99.90
25346;DHT22;13300;51.032;3.710;2023-04-03T04:01:16;4.80;99.90
25346;DHT22;13300;51.032;3.710;2023-04-03T04:04:12;4.70;99.90
25346;DHT22;13300;51.032;3.710;2023-04-03T04:07:09;4.60;99.90
25346;DHT22;13300;51.032;3.710;2023-04-03T04:09:53;4.70;99.90
25346;DHT22;13300;51.032;3.710;2023-04-03T04:12:29;4.70;99.90
25346;DHT22;13300;51.032;3.710;2023-04-03T04:15:33;4.70;99.90
25346;DHT22;13300;51.032;3.710;2023-04-03T04:18:03;4.70;99.90
25346;DHT22;13300;51.032;3.710;2023-04-03T04:20:35;4.60;99.90
25346;DHT22;13300;51.032;3.710;2023-04-03T04:23:10;4.60;99.90
25346;DHT22;13300;51.032;3.710;2023-04-03T04:25:38;4.60;99.90
25346;DHT22;13300;51.032;3.710;2023-04-03T04:28:07;4.60;99.90
25346;DHT22;13300;51.032;3.710;2023-04-03T04:30:40;4.70;99.90
25346;DHT22;13300;51.032;3.710;2023-04-03T04:33:13;4.60;99.90
25346;DHT22;13300;51.032;3.710;2023-04-03T04:35:46;4.60;99.90
25346;DHT22;13300;51.032;3.710;2023-04-03T04:38:18;4.60;99.90
25346;DHT22;13300;51.032;3.710;2023-04-03T04:41:03;4.50;99.90
25346;DHT22;13300;51.032;3.710;2023-04-03T04:43:37;4.60;99.90
25346;DHT22;13300;51.032;3.710;2023-04-03T04:46:15;4.50;99.90
25346;DHT22;13300;51.032;3.710;2023-04-03T04:49:05;4.50;99.90
25346;DHT22;13300;51.032;3.710;2023-04-03T04:51:41;4.40;99.90
25346;DHT22;13300;51.032;3.710;2023-04-03T04:54:24;4.40;99.90
25346;DHT22;13300;51.032;3.710;2023-04-03T04:57:03;4.40;99.90
25346;DHT22;13300;51.032;3.710;2023-04-03T04:59:48;4.40;99.90
25346;DHT22;13300;51.032;3.710;2023-04-03T05:02:17;4.30;99.90
25346;DHT22;13300;51.032;3.710;2023-04-03T05:04:58;4.30;99.90
25346;DHT22;13300;51.032;3.710;2023-04-03T05:07:24;4.30;99.90
25346;DHT22;13300;51.032;3.710;2023-04-03T05:09:55;4.30;99.90
25346;DHT22;13300;51.032;3.710;2023-04-03T05:12:57;4.30;99.90
25346;DHT22;13300;51.032;3.710;2023-04-03T05:15:26;4.40;99.90
25346;DHT22;13300;51.032;3.710;2023-04-03T05:17:57;4.30;99.90
25346;DHT22;13300;51.032;3.710;2023-04-03T05:20:25;4.40;99.90
25346;DHT22;13300;51.032;3.710;2023-04-03T05:22:58;4.30;99.90
25346;DHT22;13300;51.032;3.710;2023-04-03T05:25:24;4.20;99.90
25346;DHT22;13300;51.032;3.710;2023-04-03T05:27:50;4.30;99.90
25346;DHT22;13300;51.032;3.710;2023-04-03T05:30:17;4.30;99.90
25346;DHT22;13300;51.032;3.710;2023-04-03T05:32:58;4.30;99.90
25346;DHT22;13300;51.032;3.710;2023-04-03T05:35:44;4.30;99.90
25346;DHT22;13300;51.032;3.710;2023-04-03T05:38:19;4.20;99.90
25346;DHT22;13300;51.032;3.710;2023-04-03T05:40:45;4.30;99.90
25346;DHT22;13300;51.032;3.710;2023-04-03T05:43:36;4.40;99.90
25346;DHT22;13300;51.032;3.710;2023-04-03T05:51:39;4.60;99.90
25346;DHT22;13300;51.032;3.710;2023-04-03T05:56:54;4.70;99.90
25346;DHT22;13300;51.032;3.710;2023-04-03T05:59:20;4.80;99.90
25346;DHT22;13300;51.032;3.710;2023-04-03T06:01:46;4.90;99.90
25346;DHT22;13300;51.032;3.710;2023-04-03T06:04:19;5.10;99.90
25346;DHT22;13300;51.032;3.710;2023-04-03T06:06:56;5.30;99.90
25346;DHT22;13300;51.032;3.710;2023-04-03T06:09:25;5.50;99.90
25346;DHT22;13300;51.032;3.710;2023-04-03T06:11:54;5.40;99.90
25346;DHT22;13300;51.032;3.710;2023-04-03T06:14:22;5.40;99.90
25346;DHT22;13300;51.032;3.710;2023-04-03T06:16:56;5.60;99.90
25346;DHT22;13300;51.032;3.710;2023-04-03T06:19:29;5.70;99.90
25346;DHT22;13300;51.032;3.710;2023-04-03T06:22:20;5.70;99.90
25346;DHT22;13300;51.032;3.710;2023-04-03T06:25:00;6.00;99.90
25346;DHT22;13300;51.032;3.710;2023-04-03T06:27:46;6.20;99.90
25346;DHT22;13300;51.032;3.710;2023-04-03T06:30:33;6.40;99.90
25346;DHT22;13300;51.032;3.710;2023-04-03T06:33:21;6.70;99.90
25346;DHT22;13300;51.032;3.710;2023-04-03T06:35:49;7.00;99.90
25346;DHT22;13300;51.032;3.710;2023-04-03T06:41:31;8.00;99.90
25346;DHT22;13300;51.032;3.710;2023-04-03T06:44:11;8.80;99.90
25346;DHT22;13300;51.032;3.710;2023-04-03T06:46:51;9.50;99.90
25346;DHT22;13300;51.032;3.710;2023-04-03T06:52:36;11.00;99.90
25346;DHT22;13300;51.032;3.710;2023-04-03T06:55:32;11.70;99.90
25346;DHT22;13300;51.032;3.710;2023-04-03T06:58:07;12.40;99.90
25346;DHT22;13300;51.032;3.710;2023-04-03T07:00:53;12.80;99.90
25346;DHT22;13300;51.032;3.710;2023-04-03T07:04:01;13.40;99.90
25346;DHT22;13300;51.032;3.710;2023-04-03T07:06:44;13.90;99.90
25346;DHT22;13300;51.032;3.710;2023-04-03T07:09:36;13.90;99.90
25346;DHT22;13300;51.032;3.710;2023-04-03T07:12:20;14.10;99.90
25346;DHT22;13300;51.032;3.710;2023-04-03T07:15:10;14.70;99.90
25346;DHT22;13300;51.032;3.710;2023-04-03T07:21:10;15.60;99.90
25346;DHT22;13300;51.032;3.710;2023-04-03T07:23:56;15.90;99.90
25346;DHT22;13300;51.032;3.710;2023-04-03T07:26:27;15.70;99.90
25346;DHT22;13300;51.032;3.710;2023-04-03T07:28:59;15.40;99.90
25346;DHT22;13300;51.032;3.710;2023-04-03T07:31:42;15.40;99.90
25346;DHT22;13300;51.032;3.710;2023-04-03T07:34:19;15.50;99.90
25346;DHT22;13300;51.032;3.710;2023-04-03T07:37:15;15.40;99.90
25346;DHT22;13300;51.032;3.710;2023-04-03T07:43:17;15.80;99.90
25346;DHT22;13300;51.032;3.710;2023-04-03T07:46:31;15.30;99.90
25346;DHT22;13300;51.032;3.710;2023-04-03T07:49:31;15.50;99.90
25346;DHT22;13300;51.032;3.710;2023-04-03T08:01:22;16.60;99.90
25346;DHT22;13300;51.032;3.710;2023-04-03T08:04:18;17.10;99.40
25346;DHT22;13300;51.032;3.710;2023-04-03T08:06:52;17.00;98.90
25346;DHT22;13300;51.032;3.710;2023-04-03T08:09:24;17.00;99.10
25346;DHT22;13300;51.032;3.710;2023-04-03T08:12:07;16.70;99.90
25346;DHT22;13300;51.032;3.710;2023-04-03T08:14:42;17.00;99.30
25346;DHT22;13300;51.032;3.710;2023-04-03T08:17:30;17.10;99.00
25346;DHT22;13300;51.032;3.710;2023-04-03T08:20:06;17.00;98.90
25346;DHT22;13300;51.032;3.710;2023-04-03T08:23:13;17.30;98.70
25346;DHT22;13300;51.032;3.710;2023-04-03T08:29:08;17.50;97.70
25346;DHT22;13300;51.032;3.710;2023-04-03T08:32:03;17.50;98.00
25346;DHT22;13300;51.032;3.710;2023-04-03T08:34:36;17.40;97.80
25346;DHT22;13300;51.032;3.710;2023-04-03T08:50:17;18.70;96.10
25346;DHT22;13300;51.032;3.710;2023-04-03T08:53:12;19.20;93.80
25346;DHT22;13300;51.032;3.710;2023-04-03T09:32:31;19.20;90.00
25346;DHT22;13300;51.032;3.710;2023-04-03T09:39:48;19.50;88.00
25346;DHT22;13300;51.032;3.710;2023-04-03T09:42:25;19.70;88.50
25346;DHT22;13300;51.032;3.710;2023-04-03T09:45:18;19.70;86.90
25346;DHT22;13300;51.032;3.710;2023-04-03T09:54:57;18.80;83.90
25346;DHT22;13300;51.032;3.710;2023-04-03T09:57:40;18.30;85.90
25346;DHT22;13300;51.032;3.710;2023-04-03T10:03:39;18.00;87.30
25346;DHT22;13300;51.032;3.710;2023-04-03T10:09:39;19.20;85.30
25346;DHT22;13300;51.032;3.710;2023-04-03T10:16:25;20.00;82.80
25346;DHT22;13300;51.032;3.710;2023-04-03T10:22:22;20.40;80.10
25346;DHT22;13300;51.032;3.710;2023-04-03T10:57:34;20.40;75.70
25346;DHT22;13300;51.032;3.710;2023-04-03T11:00:42;20.30;73.80
25346;DHT22;13300;51.032;3.710;2023-04-03T11:06:49;20.40;75.40
25346;DHT22;13300;51.032;3.710;2023-04-03T11:10:12;20.40;74.10
25346;DHT22;13300;51.032;3.710;2023-04-03T11:13:16;20.40;74.40
25346;DHT22;13300;51.032;3.710;2023-04-03T12:26:29;20.00;63.40
25346;DHT22;13300;51.032;3.710;2023-04-03T12:35:10;21.00;62.40
25346;DHT22;13300;51.032;3.710;2023-04-03T12:47:39;22.40;59.90
25346;DHT22;13300;51.032;3.710;2023-04-03T12:50:29;22.10;60.20
25346;DHT22;13300;51.032;3.710;2023-04-03T12:53:11;21.30;59.50
25346;DHT22;13300;51.032;3.710;2023-04-03T12:55:44;20.50;62.30
25346;DHT22;13300;51.032;3.710;2023-04-03T12:58:27;20.40;61.90
25346;DHT22;13300;51.032;3.710;2023-04-03T13:01:13;20.20;61.80
25346;DHT22;13300;51.032;3.710;2023-04-03T13:03:50;19.70;63.90
25346;DHT22;13300;51.032;3.710;2023-04-03T13:06:27;19.90;64.00
25346;DHT22;13300;51.032;3.710;2023-04-03T13:09:03;20.40;64.30
25346;DHT22;13300;51.032;3.710;2023-04-03T13:11:50;21.20;63.40
25346;DHT22;13300;51.032;3.710;2023-04-03T13:14:22;20.80;60.60
25346;DHT22;13300;51.032;3.710;2023-04-03T13:19:43;19.70;59.70
25346;DHT22;13300;51.032;3.710;2023-04-03T13:24:49;19.00;62.90
25346;DHT22;13300;51.032;3.710;2023-04-03T13:27:32;20.00;63.00
25346;DHT22;13300;51.032;3.710;2023-04-03T13:30:02;20.40;60.10
25346;DHT22;13300;51.032;3.710;2023-04-03T13:32:35;20.80;60.10
25346;DHT22;13300;51.032;3.710;2023-04-03T13:37:58;20.60;59.30
25346;DHT22;13300;51.032;3.710;2023-04-03T13:40:26;20.50;59.60
25346;DHT22;13300;51.032;3.710;2023-04-03T13:43:14;20.80;60.10
25346;DHT22;13300;51.032;3.710;2023-04-03T13:48:37;20.50;58.40
25346;DHT22;13300;51.032;3.710;2023-04-03T13:54:23;21.30;58.20
25346;DHT22;13300;51.032;3.710;2023-04-03T13:57:02;20.90;56.60
25346;DHT22;13300;51.032;3.710;2023-04-03T14:02:47;21.40;55.70
25346;DHT22;13300;51.032;3.710;2023-04-03T14:05:14;21.20;56.10
25346;DHT22;13300;51.032;3.710;2023-04-03T14:07:53;20.70;56.60
25346;DHT22;13300;51.032;3.710;2023-04-03T14:10:52;20.70;55.70
25346;DHT22;13300;51.032;3.710;2023-04-03T14:13:32;20.90;56.80
25346;DHT22;13300;51.032;3.710;2023-04-03T14:16:01;20.50;56.50
25346;DHT22;13300;51.032;3.710;2023-04-03T14:18:31;20.60;56.00
25346;DHT22;13300;51.032;3.710;2023-04-03T14:20:59;20.20;56.40
25346;DHT22;13300;51.032;3.710;2023-04-03T14:23:28;20.10;56.90
25346;DHT22;13300;51.032;3.710;2023-04-03T14:25:58;19.60;57.30
25346;DHT22;13300;51.032;3.710;2023-04-03T14:28:26;19.90;57.00
25346;DHT22;13300;51.032;3.710;2023-04-03T14:30:59;19.40;56.00
25346;DHT22;13300;51.032;3.710;2023-04-03T14:33:32;19.20;57.80
25346;DHT22;13300;51.032;3.710;2023-04-03T14:36:14;19.30;58.60
25346;DHT22;13300;51.032;3.710;2023-04-03T14:39:11;19.70;56.10
25346;DHT22;13300;51.032;3.710;2023-04-03T14:42:14;20.10;55.90
25346;DHT22;13300;51.032;3.710;2023-04-03T14:44:53;20.70;55.90
25346;DHT22;13300;51.032;3.710;2023-04-03T14:47:27;21.10;55.00
25346;DHT22;13300;51.032;3.710;2023-04-03T14:50:11;21.30;55.70
25346;DHT22;13300;51.032;3.710;2023-04-03T14:52:41;21.40;54.40
25346;DHT22;13300;51.032;3.710;2023-04-03T14:55:23;20.90;54.90
25346;DHT22;13300;51.032;3.710;2023-04-03T14:58:03;20.90;55.00
25346;DHT22;13300;51.032;3.710;2023-04-03T15:00:32;20.50;55.20
25346;DHT22;13300;51.032;3.710;2023-04-03T15:03:08;20.50;55.70
25346;DHT22;13300;51.032;3.710;2023-04-03T15:05:39;20.10;56.30
25346;DHT22;13300;51.032;3.710;2023-04-03T15:08:26;20.10;56.70
25346;DHT22;13300;51.032;3.710;2023-04-03T15:10:56;20.50;56.40
25346;DHT22;13300;51.032;3.710;2023-04-03T15:13:34;20.30;55.40
25346;DHT22;13300;51.032;3.710;2023-04-03T15:16:27;20.80;56.00
25346;DHT22;13300;51.032;3.710;2023-04-03T15:18:56;20.80;56.00
25346;DHT22;13300;51.032;3.710;2023-04-03T15:21:31;20.50;56.60
25346;DHT22;13300;51.032;3.710;2023-04-03T15:24:00;20.10;56.00
25346;DHT22;13300;51.032;3.710;2023-04-03T15:26:27;19.60;56.30
25346;DHT22;13300;51.032;3.710;2023-04-03T15:29:03;19.20;57.50
25346;DHT22;13300;51.032;3.710;2023-04-03T15:31:29;19.30;57.20
25346;DHT22;13300;51.032;3.710;2023-04-03T15:33:56;19.10;57.10
25346;DHT22;13300;51.032;3.710;2023-04-03T15:36:22;19.10;57.10
25346;DHT22;13300;51.032;3.710;2023-04-03T15:38:48;19.00;57.00
25346;DHT22;13300;51.032;3.710;2023-04-03T15:41:14;17.90;56.60
25346;DHT22;13300;51.032;3.710;2023-04-03T15:43:40;17.50;58.60
25346;DHT22;13300;51.032;3.710;2023-04-03T15:46:06;17.40;59.60
25346;DHT22;13300;51.032;3.710;2023-04-03T15:48:33;17.50;59.10
25346;DHT22;13300;51.032;3.710;2023-04-03T15:51:00;17.50;58.70
25346;DHT22;13300;51.032;3.710;2023-04-03T15:53:26;17.60;58.70
25346;DHT22;13300;51.032;3.710;2023-04-03T15:55:55;17.90;58.50
25346;DHT22;13300;51.032;3.710;2023-04-03T15:58:21;17.80;57.90
25346;DHT22;13300;51.032;3.710;2023-04-03T16:00:50;17.70;58.10
25346;DHT22;13300;51.032;3.710;2023-04-03T16:03:21;16.80;58.20
25346;DHT22;13300;51.032;3.710;2023-04-03T16:05:48;16.10;60.10
25346;DHT22;13300;51.032;3.710;2023-04-03T16:08:15;15.40;61.30
25346;DHT22;13300;51.032;3.710;2023-04-03T16:11:02;14.80;63.30
25346;DHT22;13300;51.032;3.710;2023-04-03T16:13:45;14.10;64.80
25346;DHT22;13300;51.032;3.710;2023-04-03T16:16:13;13.70;66.20
25346;DHT22;13300;51.032;3.710;2023-04-03T16:18:52;13.30;67.10
25346;DHT22;13300;51.032;3.710;2023-04-03T16:21:19;13.00;67.80
25346;DHT22;13300;51.032;3.710;2023-04-03T16:23:45;12.80;68.40
25346;DHT22;13300;51.032;3.710;2023-04-03T16:26:25;12.70;69.00
25346;DHT22;13300;51.032;3.710;2023-04-03T16:28:56;12.70;68.20
25346;DHT22;13300;51.032;3.710;2023-04-03T16:31:22;12.50;66.50
25346;DHT22;13300;51.032;3.710;2023-04-03T16:33:49;12.30;66.10
25346;DHT22;13300;51.032;3.710;2023-04-03T16:36:15;12.10;66.70
25346;DHT22;13300;51.032;3.710;2023-04-03T16:38:44;11.90;67.50
25346;DHT22;13300;51.032;3.710;2023-04-03T16:41:10;11.70;67.90
25346;DHT22;13300;51.032;3.710;2023-04-03T16:43:38;11.70;68.70
25346;DHT22;13300;51.032;3.710;2023-04-03T16:46:05;11.70;69.50
25346;DHT22;13300;51.032;3.710;2023-04-03T16:48:34;11.60;69.30
25346;DHT22;13300;51.032;3.710;2023-04-03T16:51:12;11.60;69.60
25346;DHT22;13300;51.032;3.710;2023-04-03T16:53:38;11.50;70.10
25346;DHT22;13300;51.032;3.710;2023-04-03T16:56:04;11.40;70.00
25346;DHT22;13300;51.032;3.710;2023-04-03T16:58:30;11.40;71.10
25346;DHT22;13300;51.032;3.710;2023-04-03T17:00:56;11.40;70.80
25346;DHT22;13300;51.032;3.710;2023-04-03T17:03:25;11.40;71.40
25346;DHT22;13300;51.032;3.710;2023-04-03T17:05:53;11.30;71.40
25346;DHT22;13300;51.032;3.710;2023-04-03T17:08:22;11.40;71.70
25346;DHT22;13300;51.032;3.710;2023-04-03T17:10:48;11.50;71.80
25346;DHT22;13300;51.032;3.710;2023-04-03T17:13:15;11.50;71.10
25346;DHT22;13300;51.032;3.710;2023-04-03T17:15:41;11.40;70.60
25346;DHT22;13300;51.032;3.710;2023-04-03T17:18:09;11.20;70.70
25346;DHT22;13300;51.032;3.710;2023-04-03T17:20:38;11.10;70.40
25346;DHT22;13300;51.032;3.710;2023-04-03T17:23:04;11.00;71.70
25346;DHT22;13300;51.032;3.710;2023-04-03T17:25:31;11.00;71.80
25346;DHT22;13300;51.032;3.710;2023-04-03T17:28:03;11.00;71.20
25346;DHT22;13300;51.032;3.710;2023-04-03T17:30:29;10.90;72.10
25346;DHT22;13300;51.032;3.710;2023-04-03T17:32:58;10.80;72.30
25346;DHT22;13300;51.032;3.710;2023-04-03T17:35:26;10.70;73.50
25346;DHT22;13300;51.032;3.710;2023-04-03T17:37:57;10.70;73.90
25346;DHT22;13300;51.032;3.710;2023-04-03T17:40:28;10.70;74.50
25346;DHT22;13300;51.032;3.710;2023-04-03T17:47:18;10.90;75.10
25346;DHT22;13300;51.032;3.710;2023-04-03T17:49:53;10.60;76.20
25346;DHT22;13300;51.032;3.710;2023-04-03T17:52:25;10.50;76.40
25346;DHT22;13300;51.032;3.710;2023-04-03T17:55:11;10.40;77.20
25346;DHT22;13300;51.032;3.710;2023-04-03T17:57:42;10.40;77.00
25346;DHT22;13300;51.032;3.710;2023-04-03T18:00:17;10.30;77.00
25346;DHT22;13300;51.032;3.710;2023-04-03T18:02:43;10.30;77.40
25346;DHT22;13300;51.032;3.710;2023-04-03T18:05:09;10.30;77.50
25346;DHT22;13300;51.032;3.710;2023-04-03T18:07:36;10.20;78.10
25346;DHT22;13300;51.032;3.710;2023-04-03T18:13:35;10.00;78.50
25346;DHT22;13300;51.032;3.710;2023-04-03T18:16:06;9.90;79.20
25346;DHT22;13300;51.032;3.710;2023-04-03T18:18:33;9.90;80.10
25346;DHT22;13300;51.032;3.710;2023-04-03T18:21:01;9.70;80.60
25346;DHT22;13300;51.032;3.710;2023-04-03T18:23:32;9.70;81.10
25346;DHT22;13300;51.032;3.710;2023-04-03T18:26:02;9.60;81.80
25346;DHT22;13300;51.032;3.710;2023-04-03T18:28:29;9.50;82.40
25346;DHT22;13300;51.032;3.710;2023-04-03T18:30:59;9.50;82.70
25346;DHT22;13300;51.032;3.710;2023-04-03T18:33:29;9.50;83.40
25346;DHT22;13300;51.032;3.710;2023-04-03T18:35:55;9.30;83.90
25346;DHT22;13300;51.032;3.710;2023-04-03T18:38:41;9.40;84.10
25346;DHT22;13300;51.032;3.710;2023-04-03T18:41:07;9.30;85.20
25346;DHT22;13300;51.032;3.710;2023-04-03T18:43:40;9.30;85.40
25346;DHT22;13300;51.032;3.710;2023-04-03T18:46:13;9.30;85.40
25346;DHT22;13300;51.032;3.710;2023-04-03T18:49:00;9.20;86.30
25346;DHT22;13300;51.032;3.710;2023-04-03T18:51:28;9.10;86.50
25346;DHT22;13300;51.032;3.710;2023-04-03T18:54:05;9.20;88.10
25346;DHT22;13300;51.032;3.710;2023-04-03T18:56:44;9.10;87.50
25346;DHT22;13300;51.032;3.710;2023-04-03T18:59:18;9.10;88.30
25346;DHT22;13300;51.032;3.710;2023-04-03T19:01:53;9.10;88.30
25346;DHT22;13300;51.032;3.710;2023-04-03T19:04:19;9.00;88.10
25346;DHT22;13300;51.032;3.710;2023-04-03T19:06:45;8.80;88.40
25346;DHT22;13300;51.032;3.710;2023-04-03T19:09:16;9.00;89.00
25346;DHT22;13300;51.032;3.710;2023-04-03T19:12:08;8.90;89.40
25346;DHT22;13300;51.032;3.710;2023-04-03T19:14:44;8.80;90.10
25346;DHT22;13300;51.032;3.710;2023-04-03T19:17:13;8.60;90.20
25346;DHT22;13300;51.032;3.710;2023-04-03T19:19:39;8.70;90.50
25346;DHT22;13300;51.032;3.710;2023-04-03T19:22:08;8.60;90.70
25346;DHT22;13300;51.032;3.710;2023-04-03T19:24:34;8.50;90.90
25346;DHT22;13300;51.032;3.710;2023-04-03T19:27:03;8.50;91.30
25346;DHT22;13300;51.032;3.710;2023-04-03T19:29:39;8.60;91.30
25346;DHT22;13300;51.032;3.710;2023-04-03T19:32:08;8.50;91.60
25346;DHT22;13300;51.032;3.710;2023-04-03T19:34:36;8.50;92.10
25346;DHT22;13300;51.032;3.710;2023-04-03T19:37:08;8.40;92.20
25346;DHT22;13300;51.032;3.710;2023-04-03T19:39:36;8.40;92.20
25346;DHT22;13300;51.032;3.710;2023-04-03T19:42:11;8.30;92.20
25346;DHT22;13300;51.032;3.710;2023-04-03T19:44:45;8.20;92.50
25346;DHT22;13300;51.032;3.710;2023-04-03T19:47:41;8.30;92.60
25346;DHT22;13300;51.032;3.710;2023-04-03T19:50:25;8.30;92.50
25346;DHT22;13300;51.032;3.710;2023-04-03T19:52:55;8.20;92.70
25346;DHT22;13300;51.032;3.710;2023-04-03T19:55:55;8.20;92.90
25346;DHT22;13300;51.032;3.710;2023-04-03T19:58:26;8.10;92.90
25346;DHT22;13300;51.032;3.710;2023-04-03T20:01:00;8.10;93.00
25346;DHT22;13300;51.032;3.710;2023-04-03T20:03:39;8.10;93.30
25346;DHT22;13300;51.032;3.710;2023-04-03T20:06:10;8.20;93.30
25346;DHT22;13300;51.032;3.710;2023-04-03T20:08:44;8.20;93.50
25346;DHT22;13300;51.032;3.710;2023-04-03T20:11:17;8.20;93.50
25346;DHT22;13300;51.032;3.710;2023-04-03T20:13:43;8.10;93.50
25346;DHT22;13300;51.032;3.710;2023-04-03T20:16:18;8.10;93.90
25346;DHT22;13300;51.032;3.710;2023-04-03T20:18:50;7.90;94.30
25346;DHT22;13300;51.032;3.710;2023-04-03T20:21:25;7.90;94.70
25346;DHT22;13300;51.032;3.710;2023-04-03T20:23:55;7.80;95.30
25346;DHT22;13300;51.032;3.710;2023-04-03T20:26:34;7.80;94.90
25346;DHT22;13300;51.032;3.710;2023-04-03T20:29:10;7.80;95.10
25346;DHT22;13300;51.032;3.710;2023-04-03T20:31:41;7.70;95.50
25346;DHT22;13300;51.032;3.710;2023-04-03T20:34:18;7.70;95.60
25346;DHT22;13300;51.032;3.710;2023-04-03T20:36:47;7.80;96.10
25346;DHT22;13300;51.032;3.710;2023-04-03T20:39:15;7.60;96.30
25346;DHT22;13300;51.032;3.710;2023-04-03T20:41:43;7.50;96.70
25346;DHT22;13300;51.032;3.710;2023-04-03T20:44:24;7.50;96.90
25346;DHT22;13300;51.032;3.710;2023-04-03T20:47:13;7.50;97.00
25346;DHT22;13300;51.032;3.710;2023-04-03T20:50:07;7.50;97.50
25346;DHT22;13300;51.032;3.710;2023-04-03T20:52:42;7.40;97.80
25346;DHT22;13300;51.032;3.710;2023-04-03T20:55:14;7.40;97.90
25346;DHT22;13300;51.032;3.710;2023-04-03T20:57:48;7.40;98.30
25346;DHT22;13300;51.032;3.710;2023-04-03T21:00:30;7.30;98.60